Airfield :
LOGIN :

Register | Disclaimer

   EN    FR    IT 

 










Legend :    VFR   Marginal VFR   IFR   Intensive IFR   Very Intensive IFR
Visi :
Ceiling :
>= 8 km
>= 3000ft
5 to 8 km
1000 to 3000 ft
1500m to 5 km
500 to 1000 ft
800 to 1500m
200 to 500 ft
< 800m
< 200 ft
Symbols :   Thunderstorms  Fog  Heavy snow  Heavy precipitations  Wind > 20 kt
SIGMETs :     Misc.  Thunderstorms  Icing  Turbulence  Mountain Waves  Volcanic Ashes






- Airport Elevation : 196 ft
- IATA code : SDN


ENSD - Sandane , Anda

CURRENT METAR :
  • 191950Z VRB03KT 9999 VCSH FEW032 BKN055 20/13 Q1016 RMK WIND RWY 26 VRB03KT WIND 1140FT 22006KT

EXPIRED METARs :
  • 191920Z AUTO 00000KT 9999 OVC062/// 19/13 Q1016 RMK WIND RWY 26 VRB01KT WIND 1140FT 21004KT
  • 191850Z AUTO 00000KT 9999 BKN055/// OVC076/// 20/13 Q1016 RMK WIND RWY 26 VRB01KT WIND 1140FT 22002KT
  • 191820Z AUTO VRB01KT 9999 OVC053/// 20/13 Q1016 RMK WIND RWY 26 VRB02KT WIND 1140FT VRB03KT
  • 191750Z AUTO VRB02KT 9999 OVC057/// 20/13 Q1016 RMK WIND RWY 26 VRB02KT WIND 1140FT 29003KT
  • 191720Z 00000KT 9999 BKN055 20/14 Q1016 RMK WIND RWY 26 VRB01KT WIND 1140FT 28004KT
  • 191650Z VRB02KT 9999 BKN057 19/13 Q1016 RMK WIND RWY 26 25004KT WIND 1140FT VRB02KT
  • 191620Z 05003KT 9999 BKN062 20/12 Q1017 RMK WIND RWY 26 VRB03KT WIND 1140FT 28003KT
  • 191550Z VRB01KT 9999 BKN062 20/13 Q1017 RMK WIND RWY 26 VRB02KT WIND 1140FT 00000KT
  • 191520Z VRB01KT 9999 BKN064 20/13 Q1017 RMK WIND RWY 26 VRB03KT WIND 1140FT 21002KT

TAF TAF ENSD
Valid from the 19 at 15:00 until the 19 at 21:00 UTC


191400Z 1915/1921 07005KT 9999 SCT060 BKN090



MET'MAP, your aeronautical weather chart ! - Copyright ORBIFLY December 2007 - Disclaimer

ORBIFLY MET'MAP TEAM :

Programming & Development : Alexandra Zaïnal
Original concept : Baudouin d'Aumeries
Technical & hardware support : Manuel Goepfert
Assistance : Marc-Olivier Méhu




SOURCES & CREDITS :

   NOAA